CDT,Max TemperatureF,Mean TemperatureF,Min TemperatureF,Max Dew PointF,MeanDew PointF,Min DewpointF,Max Humidity, Mean Humidity, Min Humidity, Max Sea Level PressureIn, Mean Sea Level PressureIn, Min Sea Level PressureIn, Max VisibilityMiles, Mean VisibilityMiles, Min VisibilityMiles, Max Wind SpeedMPH, Mean Wind SpeedMPH, Max Gust SpeedMPH,PrecipitationIn, CloudCover, Events, WindDirDegrees
2014-3-1,51,43,34,43,38,34,100,86,71,30.13,30.06,30.00,10,6,0,12,5,15,T,8,Fog,126
2014-3-2,48,29,9,32,16,4,96,88,80,30.34,30.18,30.05,8,1,0,17,10,24,1.00,8,Fog-Rain-Snow-Thunderstorm,348
2014-3-3,26,15,3,6,2,-2,87,62,36,30.48,30.37,30.27,10,5,0,17,6,24,0.07,2,Fog-Snow,334
2014-3-4,39,25,11,16,11,6,83,58,33,30.31,30.19,30.11,10,10,10,10,5,15,0.00,0,,125
2014-3-5,45,32,18,25,18,14,84,58,32,30.18,30.15,30.09,10,10,10,9,4,10,0.00,1,,118
2014-3-6,50,39,27,26,22,16,85,56,26,30.23,30.14,30.06,10,10,7,7,3,10,0.00,1,,115
2014-3-7,61,44,26,34,28,21,78,55,32,30.05,29.97,29.91,10,10,10,15,7,18,0.00,0,,144
2014-3-8,51,43,35,38,34,30,92,71,50,30.29,30.16,29.97,10,6,2,13,5,18,0.01,5,Rain,337
2014-3-9,57,46,34,42,36,32,100,79,57,30.34,30.26,30.11,10,4,2,10,3,13,0.00,6,,188
2014-3-10,74,57,39,39,33,24,89,53,16,30.11,29.94,29.80,10,10,10,17,8,25,0.00,0,,237
2014-3-11,78,64,49,52,47,36,77,58,38,29.78,29.62,29.47,10,10,10,23,11,35,0.00,1,,173
2014-3-12,52,44,36,45,26,15,83,54,24,30.19,30.01,29.66,10,10,9,29,12,43,T,3,,316
2014-3-13,66,52,39,24,22,17,51,33,15,30.19,30.11,30.01,10,10,8,14,7,24,0.00,0,,243
2014-3-14,68,57,46,40,31,25,59,44,29,30.01,29.97,29.93,10,10,8,16,7,28,T,2,Rain,228
2014-3-15,67,55,42,54,46,38,100,76,52,30.02,29.92,29.81,10,8,2,16,7,20,0.29,4,Rain,139
2014-3-16,54,41,27,54,36,24,100,93,85,30.06,29.85,29.64,10,3,0,29,11,40,2.28,8,Fog-Rain-Snow,8
2014-3-17,47,33,19,33,25,17,92,69,45,30.07,29.90,29.75,10,10,9,17,4,21,0.00,1,Snow,347
2014-3-18,66,52,37,45,38,33,92,63,34,29.75,29.64,29.53,10,10,9,28,15,38,0.00,0,,163
2014-3-19,58,49,39,38,31,27,76,57,38,30.20,30.03,29.71,10,10,9,21,10,35,0.00,3,,288
2014-3-20,69,51,33,35,23,8,75,43,10,30.19,30.10,29.99,10,10,10,18,4,23,0.00,0,,191
2014-3-21,72,57,42,42,32,24,53,39,24,29.99,29.91,29.83,10,10,5,16,8,24,0.00,2,,176
2014-3-22,60,51,41,34,29,21,62,43,24,30.21,30.12,30.01,10,10,10,15,7,18,0.03,3,Rain,360
2014-3-23,50,41,32,30,20,12,65,48,31,30.41,30.32,30.24,10,10,10,14,8,21,T,2,,21
2014-3-24,53,41,28,36,23,14,85,57,29,30.30,30.21,30.10,10,10,10,15,8,20,T,5,Rain,127
2014-3-25,45,35,24,32,21,11,92,59,25,30.35,30.27,30.20,10,9,5,22,7,30,0.00,3,,310
2014-3-26,58,41,23,38,24,15,86,54,22,30.30,30.16,29.93,10,10,7,28,12,39,0.07,3,Rain,159
2014-3-27,65,56,46,57,47,32,83,69,54,29.90,29.74,29.62,10,10,10,25,14,35,T,5,Rain-Thunderstorm,193
2014-3-28,59,49,39,55,43,36,100,74,47,30.04,29.96,29.81,10,6,1,10,4,16,0.66,5,Rain-Thunderstorm,335
2014-3-29,58,47,36,41,36,32,100,70,40,30.27,30.18,30.06,10,6,2,17,7,25,0.00,2,,312
2014-3-30,70,51,32,40,34,27,89,55,20,30.26,30.15,29.99,10,10,5,16,8,21,0.00,0,,149
2014-3-31,62,57,52,51,42,32,80,56,32,29.98,29.91,29.81,10,10,7,25,10,33,0.03,3,Rain-Thunderstorm,166